Time;durP1;ratioP1;P1;durP2;ratioP2;P2;SDS_P1;SDS_P2;PMS_P1;PMS_P2;Temp;Humidity;BMP_temperature;BMP_pressure;BME280_temperature;BME280_humidity;BME280_pressure;Samples;Min_cycle;Max_cycle;Signal;HPM_P1;HPM_P2
2023/10/19 00:03:40;;;;;;;;;;;;;;;;;;;;;
2023/10/19 00:11:01;;;;;;;;;;;;;;;;;;;;;
2023/10/19 00:28:01;;;;;;;;;;;;;;;;;;;;;
2023/10/19 00:31:42;;;;;;;7.50;6.70;;;13.00;99.90;;;;;;4920412;28;20551;-86
2023/10/19 00:35:10;;;;;;;7.20;6.40;;;13.10;99.90;;;;;;4934537;29;20433;-87
2023/10/19 00:38:47;;;;;;;7.13;5.80;;;13.10;99.90;;;;;;4936325;29;20803;-90
2023/10/19 00:53:59;;;;;;;10.50;7.17;;;13.30;99.90;;;;;;4917585;29;20459;-87
2023/10/19 00:57:14;;;;;;;7.20;6.47;;;13.40;99.90;;;;;;4947434;28;20503;-87
2023/10/19 01:06:09;;;;;;;;;;;;;;;;;;;;;
2023/10/19 01:17:51;;;;;;;7.30;6.23;;;13.60;99.90;;;;;;4880366;29;20441;-89
2023/10/19 01:25:20;;;;;;;6.87;6.17;;;13.30;99.90;;;;;;4822021;29;21015;-88
2023/10/19 01:51:19;;;;;;;8.10;7.20;;;13.40;99.90;;;;;;5007398;28;20483;-87
2023/10/19 01:54:34;;;;;;;8.00;7.20;;;13.70;99.90;;;;;;4914009;29;20546;-88
2023/10/19 02:16:43;;;;;;;;;;;;;;;;;;;;;
2023/10/19 02:19:54;;;;;;;8.57;6.17;;;13.50;99.90;;;;;;5039615;28;20425;-89
2023/10/19 02:26:51;;;;;;;6.87;6.17;;;13.70;99.90;;;;;;5033580;28;20492;-87
2023/10/19 02:29:54;;;;;;;7.87;6.07;;;13.50;99.90;;;;;;5022184;28;20541;-90
2023/10/19 02:32:47;;;;;;;7.70;6.93;;;13.60;99.90;;;;;;4938994;28;20457;-89
2023/10/19 02:36:28;;;;;;;7.10;6.40;;;13.90;99.90;;;;;;4894596;29;20625;-88
2023/10/19 02:39:34;;;;;;;6.40;5.67;;;13.90;99.90;;;;;;4857926;29;20474;-88
2023/10/19 02:42:33;;;;;;;7.00;6.30;;;13.80;99.90;;;;;;4885131;29;20544;-88
2023/10/19 02:45:23;;;;;;;7.67;6.83;;;13.80;99.90;;;;;;4932164;28;20825;-87
2023/10/19 02:48:02;;;;;;;8.17;7.03;;;14.00;99.90;;;;;;4923862;29;20592;-88
2023/10/19 02:50:41;;;;;;;6.90;6.20;;;14.00;99.90;;;;;;4919824;29;20505;-88
2023/10/19 02:53:28;;;;;;;7.00;6.30;;;14.00;99.90;;;;;;4923744;29;20469;-87
2023/10/19 02:56:52;;;;;;;8.43;6.23;;;13.70;99.90;;;;;;4969283;28;20909;-89
2023/10/19 02:59:55;;;;;;;6.93;6.20;;;14.10;99.90;;;;;;5013962;28;20982;-87
2023/10/19 03:02:39;;;;;;;6.10;5.60;;;14.10;99.90;;;;;;5027326;28;20537;-88
2023/10/19 03:05:17;;;;;;;7.50;6.27;;;14.10;99.90;;;;;;5014629;28;21098;-87
2023/10/19 03:08:15;;;;;;;8.23;7.10;;;14.10;99.90;;;;;;5015889;28;20476;-88
2023/10/19 03:11:03;;;;;;;8.03;7.23;;;14.00;99.90;;;;;;5015690;28;20478;-87
2023/10/19 03:16:59;;;;;;;7.23;6.53;;;13.90;99.90;;;;;;5010076;28;20461;-87
2023/10/19 03:19:36;;;;;;;6.33;5.73;;;13.90;99.90;;;;;;5020218;28;20558;-86
2023/10/19 03:22:30;;;;;;;6.93;6.23;;;14.10;99.90;;;;;;5019558;28;20462;-87
2023/10/19 03:28:37;;;;;;;7.07;6.37;;;14.10;99.90;;;;;;5017823;28;20465;-88
2023/10/19 03:31:43;;;;;;;8.33;6.10;;;14.00;99.90;;;;;;5008101;28;20447;-90
2023/10/19 03:34:49;;;;;;;;;;;;;;;;;;;;;
2023/10/19 03:37:35;;;;;;;7.03;6.43;;;14.20;99.90;;;;;;5015905;28;20568;-88
2023/10/19 03:40:59;;;;;;;6.90;6.30;;;14.20;99.90;;;;;;5015962;28;20477;-89
2023/10/19 03:43:40;;;;;;;7.37;6.67;;;14.20;99.90;;;;;;5011064;28;20450;-89
2023/10/19 03:46:51;;;;;;;;;;;;;;;;;;;;;
2023/10/19 03:49:48;;;;;;;7.07;6.37;;;14.00;99.90;;;;;;5023742;28;20497;-90
2023/10/19 03:52:44;;;;;;;5.17;4.77;;;13.90;99.90;;;;;;5018108;28;20962;-88
2023/10/19 03:55:43;;;;;;;6.50;4.80;;;13.90;99.90;;;;;;5025079;28;20445;-88
2023/10/19 03:58:47;;;;;;;7.27;6.57;;;14.10;99.90;;;;;;5017378;28;20449;-87
2023/10/19 04:01:59;;;;;;;6.73;5.90;;;14.30;99.90;;;;;;5013586;28;20491;-89
2023/10/19 04:05:15;;;;;;;8.67;6.27;;;14.30;99.90;;;;;;5022114;28;20858;-89
2023/10/19 04:08:29;;;;;;;6.60;6.00;;;14.30;99.90;;;;;;5022576;28;20459;-90
2023/10/19 04:14:20;;;;;;;7.90;6.13;;;14.30;99.90;;;;;;5013225;28;20464;-89
2023/10/19 04:17:20;;;;;;;6.73;5.60;;;14.30;99.90;;;;;;5022721;28;20996;-87
2023/10/19 04:21:14;;;;;;;6.87;6.27;;;14.20;99.90;;;;;;5020254;28;20481;-87
2023/10/19 04:23:39;;;;;;;6.53;5.50;;;14.10;99.90;;;;;;5018729;28;20461;-89
2023/10/19 04:26:45;;;;;;;6.60;5.80;;;14.30;99.90;;;;;;5016398;28;20493;-88
2023/10/19 04:29:37;;;;;;;9.77;5.87;;;14.30;99.90;;;;;;5023782;28;20567;-89
2023/10/19 04:35:51;;;;;;;7.03;6.03;;;14.40;99.90;;;;;;5012502;28;20830;-90
2023/10/19 04:38:52;;;;;;;7.87;5.30;;;14.40;99.90;;;;;;5012844;28;20826;-88
2023/10/19 04:41:50;;;;;;;7.70;6.33;;;14.40;99.90;;;;;;5015428;28;20473;-90
2023/10/19 04:44:33;;;;;;;8.20;6.63;;;14.40;99.90;;;;;;5017983;28;20564;-89
2023/10/19 04:47:36;;;;;;;11.57;6.30;;;14.40;99.90;;;;;;5018556;28;20430;-88
2023/10/19 04:50:20;;;;;;;8.03;5.97;;;14.30;99.90;;;;;;5021833;28;20535;-89
2023/10/19 04:53:21;;;;;;;8.50;6.43;;;14.40;99.90;;;;;;5021347;28;20460;-88
2023/10/19 04:56:17;;;;;;;6.20;5.40;;;14.40;99.90;;;;;;5021324;28;20453;-89
2023/10/19 04:59:08;;;;;;;6.60;5.90;;;14.30;99.90;;;;;;5020700;28;20464;-88
2023/10/19 05:02:01;;;;;;;6.40;5.77;;;14.10;99.90;;;;;;5024671;28;20472;-88
2023/10/19 05:04:49;;;;;;;8.20;5.90;;;14.20;99.90;;;;;;5016839;28;20461;-88
2023/10/19 05:07:19;;;;;;;7.70;5.30;;;14.10;99.90;;;;;;5005815;28;20461;-86
2023/10/19 05:09:59;;;;;;;8.03;5.90;;;14.40;99.90;;;;;;5019675;28;20478;-88
2023/10/19 05:12:43;;;;;;;7.17;6.00;;;14.30;99.90;;;;;;5021098;28;20793;-88
2023/10/19 05:15:42;;;;;;;5.40;4.90;;;14.40;99.90;;;;;;5021204;28;20464;-87
2023/10/19 05:18:23;;;;;;;6.00;5.40;;;14.40;99.90;;;;;;5015507;28;20476;-87
2023/10/19 05:21:21;;;;;;;6.30;5.67;;;14.50;99.90;;;;;;5002375;28;20469;-89
2023/10/19 05:27:22;;;;;;;7.70;6.13;;;14.50;99.90;;;;;;5020404;28;20518;-88
2023/10/19 05:29:59;;;;;;;9.67;6.30;;;14.60;99.90;;;;;;5020953;28;20835;-86
2023/10/19 05:32:46;;;;;;;6.37;5.53;;;14.50;99.90;;;;;;5005838;28;21213;-87
2023/10/19 05:35:43;;;;;;;6.10;5.50;;;14.30;99.90;;;;;;5014230;28;20635;-86
2023/10/19 05:38:43;;;;;;;8.33;6.57;;;14.40;99.90;;;;;;4955143;28;20520;-88
2023/10/19 05:41:46;;;;;;;5.83;5.20;;;14.60;99.90;;;;;;4942880;28;20594;-87
2023/10/19 05:44:26;;;;;;;6.20;5.60;;;14.60;99.90;;;;;;4952181;28;20519;-87
2023/10/19 05:47:09;;;;;;;11.20;6.80;;;14.40;99.90;;;;;;4946107;28;20468;-87
2023/10/19 05:50:15;;;;;;;7.07;6.47;;;14.40;99.90;;;;;;4943137;28;20546;-88
2023/10/19 05:53:26;;;;;;;7.77;6.23;;;14.40;99.90;;;;;;4935317;28;20527;-88
2023/10/19 05:56:15;;;;;;;6.43;5.73;;;14.50;99.90;;;;;;4969267;28;20457;-87
2023/10/19 05:59:36;;;;;;;;;;;;;;;;;;;;;
2023/10/19 06:02:12;;;;;;;7.53;5.97;;;14.50;99.90;;;;;;5021464;28;20465;-87
2023/10/19 06:05:11;;;;;;;9.73;6.23;;;14.60;99.90;;;;;;5020464;28;20465;-87
2023/10/19 06:08:32;;;;;;;6.77;5.97;;;14.70;99.90;;;;;;4952840;28;20457;-86
2023/10/19 06:15:04;;;;;;;6.60;6.00;;;14.60;99.90;;;;;;4974527;28;20739;-86
2023/10/19 06:17:45;;;;;;;8.00;7.10;;;14.60;99.90;;;;;;5020245;28;20465;-87
2023/10/19 06:20:51;;;;;;;8.37;7.10;;;14.70;99.90;;;;;;5019671;28;20863;-87
2023/10/19 06:24:02;;;;;;;9.37;7.20;;;14.70;99.90;;;;;;4980231;28;20469;-88
2023/10/19 06:26:55;;;;;;;7.67;6.90;;;14.70;99.90;;;;;;5018877;28;20457;-87
2023/10/19 06:29:38;;;;;;;8.63;6.67;;;14.80;99.90;;;;;;4961965;28;20496;-89
2023/10/19 06:36:13;;;;;;;9.67;7.63;;;14.70;99.90;;;;;;5011331;28;20441;-88
2023/10/19 06:38:54;;;;;;;8.60;6.63;;;14.60;99.90;;;;;;5019634;28;21384;-89
2023/10/19 06:41:50;;;;;;;7.30;6.60;;;14.80;99.90;;;;;;4966065;28;20458;-88
2023/10/19 06:44:41;;;;;;;;;;;;;;;;;;;;;
2023/10/19 06:47:50;;;;;;;8.80;7.30;;;14.80;99.90;;;;;;4996142;28;20973;-87
2023/10/19 06:50:29;;;;;;;7.20;6.03;;;14.80;99.90;;;;;;4966555;28;20494;-90
2023/10/19 06:53:45;;;;;;;;;;;;;;;;;;;;;
2023/10/19 07:23:00;;;;;;;9.17;6.57;;;15.00;99.90;;;;;;3763695;22;20458;-88
2023/10/19 07:26:10;;;;;;;8.33;7.47;;;15.10;99.90;;;;;;5004994;28;20481;-88
2023/10/19 07:29:35;;;;;;;8.80;7.10;;;15.20;99.90;;;;;;4989589;28;20995;-88
2023/10/19 07:32:54;;;;;;;9.43;7.63;;;15.20;99.90;;;;;;4946180;28;20534;-91
2023/10/19 07:36:08;;;;;;;7.70;7.00;;;15.20;99.90;;;;;;4981210;28;20426;-89
2023/10/19 07:38:59;;;;;;;10.13;6.80;;;15.20;99.90;;;;;;4978565;28;20460;-88
2023/10/19 07:42:17;;;;;;;8.00;7.20;;;15.20;99.90;;;;;;4982660;28;20886;-91
2023/10/19 07:45:04;;;;;;;9.47;8.50;;;15.30;99.90;;;;;;4977509;28;20483;-90
2023/10/19 07:48:06;;;;;;;11.10;7.63;;;15.40;99.90;;;;;;4978915;28;20456;-87
2023/10/19 07:54:42;;;;;;;7.43;6.67;;;15.60;99.90;;;;;;5006151;28;20516;-89
2023/10/19 07:58:07;;;;;;;7.60;6.80;;;15.60;99.90;;;;;;5027489;28;20463;-90
2023/10/19 08:23:38;;;;;;;6.70;6.00;;;15.90;99.90;;;;;;1760633;22;20866;-87
2023/10/19 08:26:41;;;;;;;7.00;6.13;;;16.00;99.90;;;;;;5015926;28;20558;-87
2023/10/19 08:32:37;;;;;;;7.87;5.90;;;16.00;99.90;;;;;;4983588;28;20541;-88
2023/10/19 08:39:24;;;;;;;;;;;;;;;;;;;;;
2023/10/19 08:41:53;;;;;;;8.20;6.00;;;16.50;99.90;;;;;;5000143;28;20487;-89
2023/10/19 08:44:41;;;;;;;6.20;5.37;;;16.70;99.90;;;;;;5005780;28;20442;-90
2023/10/19 08:47:25;;;;;;;8.53;5.17;;;17.00;99.90;;;;;;5003832;28;21427;-88
2023/10/19 08:50:12;;;;;;;10.37;5.13;;;17.20;99.90;;;;;;4981206;28;20484;-90
2023/10/19 08:53:23;;;;;;;4.80;4.40;;;17.30;99.90;;;;;;4986362;28;20438;-90
2023/10/19 08:56:45;;;;;;;8.73;5.43;;;17.40;99.90;;;;;;4936420;28;20443;-88
2023/10/19 08:59:22;;;;;;;;;;;;;;;;;;;;;
2023/10/19 09:05:54;;;;;;;8.87;5.53;;;17.40;99.90;;;;;;4965225;28;20511;-90
2023/10/19 09:16:07;;;;;;;3.90;3.33;;;17.60;99.90;;;;;;4949167;28;20598;-88
2023/10/19 09:19:18;;;;;;;4.73;4.10;;;17.80;99.90;;;;;;4947345;28;20456;-87
2023/10/19 09:22:36;;;;;;;4.13;3.73;;;17.80;99.90;;;;;;5059048;22;20500;-86
2023/10/19 09:25:42;;;;;;;;;;;;;;;;;;;;;
2023/10/19 09:28:52;;;;;;;4.00;3.03;;;17.80;99.90;;;;;;5011411;28;20501;-87
2023/10/19 09:32:16;;;;;;;3.80;3.10;;;17.90;99.90;;;;;;4937324;28;20523;-88
2023/10/19 09:38:19;;;;;;;3.17;2.20;;;19.00;99.90;;;;;;4955007;28;20465;-88
2023/10/19 09:54:42;;;;;;;4.23;1.90;;;23.00;92.90;;;;;;4968542;28;20644;-89
2023/10/19 09:57:16;;;;;;;4.30;2.33;;;21.90;94.40;;;;;;4970989;28;20544;-88
2023/10/19 10:00:23;;;;;;;3.63;2.33;;;21.20;96.10;;;;;;4927875;28;20455;-89
2023/10/19 10:03:27;;;;;;;4.10;2.00;;;20.70;97.00;;;;;;4961567;28;21154;-86
2023/10/19 10:06:19;;;;;;;4.60;2.10;;;20.40;97.70;;;;;;4972604;28;20459;-87
2023/10/19 10:08:53;;;;;;;3.23;2.40;;;20.20;98.70;;;;;;4970125;28;20456;-86
2023/10/19 10:12:39;;;;;;;2.40;1.83;;;20.00;98.50;;;;;;4970065;28;20481;-85
2023/10/19 10:15:11;;;;;;;7.63;1.87;;;19.70;99.40;;;;;;4964367;28;20532;-88
2023/10/19 10:18:23;;;;;;;3.03;1.70;;;19.80;99.50;;;;;;4968506;28;20474;-86
2023/10/19 10:21:15;;;;;;;3.00;2.00;;;19.90;99.00;;;;;;4969834;28;20626;-90
2023/10/19 10:24:06;;;;;;;4.20;1.90;;;19.90;99.10;;;;;;4974513;28;20439;-88
2023/10/19 10:27:17;;;;;;;3.43;2.00;;;19.70;99.30;;;;;;4967744;28;20456;-86
2023/10/19 10:30:34;;;;;;;2.10;1.83;;;19.90;99.60;;;;;;4963571;28;20511;-87
2023/10/19 10:33:45;;;;;;;4.80;1.77;;;20.00;99.90;;;;;;4966184;28;20467;-86
2023/10/19 10:40:05;;;;;;;5.57;2.03;;;20.40;99.20;;;;;;4958858;28;20598;-87
2023/10/19 10:43:24;;;;;;;2.20;2.00;;;20.40;98.50;;;;;;4961234;28;20460;-87
2023/10/19 10:46:08;;;;;;;4.60;1.67;;;20.30;98.50;;;;;;4957604;28;20521;-89
2023/10/19 10:49:02;;;;;;;2.70;1.90;;;20.20;98.70;;;;;;4960783;28;20538;-86
2023/10/19 10:51:58;;;;;;;4.20;2.20;;;20.10;98.90;;;;;;4957434;28;20875;-87
2023/10/19 10:54:51;;;;;;;4.80;2.03;;;20.10;99.50;;;;;;4963297;28;21197;-88
2023/10/19 11:01:06;;;;;;;10.30;1.43;;;20.00;99.00;;;;;;4972629;28;20525;-87
2023/10/19 11:04:15;;;;;;;3.27;1.53;;;19.90;99.50;;;;;;4956956;28;20448;-86
2023/10/19 11:07:33;;;;;;;9.57;2.50;;;19.60;99.90;;;;;;4955254;28;20450;-90
2023/10/19 11:10:27;;;;;;;2.73;1.53;;;19.60;99.90;;;;;;4967035;28;21039;-87
2023/10/19 11:13:14;;;;;;;6.37;1.60;;;19.90;99.90;;;;;;4959350;28;20754;-86
2023/10/19 11:16:22;;;;;;;2.03;1.80;;;20.00;99.90;;;;;;4970783;28;20454;-86
2023/10/19 11:19:27;;;;;;;2.77;1.77;;;19.90;99.90;;;;;;4970010;28;20458;-86
2023/10/19 11:22:24;;;;;;;4.13;1.63;;;19.90;99.90;;;;;;4968462;28;20455;-86
2023/10/19 11:25:33;;;;;;;5.13;1.77;;;19.90;99.90;;;;;;4965774;28;21051;-85
2023/10/19 11:29:01;;;;;;;3.43;1.40;;;19.90;99.90;;;;;;4961094;28;20470;-85
2023/10/19 11:32:02;;;;;;;2.83;1.50;;;19.90;99.70;;;;;;4966203;28;20480;-86
2023/10/19 11:34:55;;;;;;;3.80;2.03;;;19.80;99.70;;;;;;4964645;28;20472;-85
2023/10/19 11:37:23;;;;;;;2.63;1.77;;;19.70;99.70;;;;;;4964151;28;20460;-89
2023/10/19 11:40:04;;;;;;;2.47;1.73;;;19.60;99.90;;;;;;4959608;28;20483;-86
2023/10/19 11:42:51;;;;;;;2.23;1.50;;;19.70;99.90;;;;;;4962838;28;20987;-86
2023/10/19 11:45:21;;;;;;;2.60;1.63;;;19.80;99.90;;;;;;4960233;28;20502;-87
2023/10/19 11:48:05;;;;;;;3.40;1.80;;;19.90;99.90;;;;;;4960255;28;20472;-86
2023/10/19 11:50:46;;;;;;;4.13;1.80;;;19.80;99.90;;;;;;4959549;28;20538;-88
2023/10/19 11:54:18;;;;;;;5.63;1.97;;;19.60;99.90;;;;;;4916827;28;20944;-87
2023/10/19 12:04:36;;;;;;;1.97;1.20;;;19.70;99.40;;;;;;4907023;29;20455;-90
2023/10/19 12:07:49;;;;;;;3.23;1.40;;;19.60;99.50;;;;;;4905911;29;20505;-86
2023/10/19 12:13:11;;;;;;;2.77;1.63;;;19.40;99.90;;;;;;5037543;28;20566;-87
2023/10/19 12:16:04;;;;;;;2.93;2.60;;;19.40;99.90;;;;;;5039440;28;20441;-87
2023/10/19 12:19:04;;;;;;;4.10;2.47;;;19.40;99.90;;;;;;5038930;28;20476;-88
2023/10/19 12:21:46;;;;;;;5.30;1.80;;;19.40;99.90;;;;;;5026208;28;20482;-87
2023/10/19 12:25:01;;;;;;;3.17;2.17;;;19.10;99.90;;;;;;5023793;28;20759;-88
2023/10/19 12:27:43;;;;;;;3.60;1.80;;;19.00;99.90;;;;;;5024869;28;20478;-87
2023/10/19 12:30:21;;;;;;;5.33;1.70;;;18.80;99.90;;;;;;5024047;28;20484;-88
2023/10/19 12:33:15;;;;;;;4.73;2.20;;;19.00;99.90;;;;;;5025988;28;20560;-86
2023/10/19 12:36:03;;;;;;;5.27;1.70;;;19.00;99.90;;;;;;5023769;28;20454;-86
2023/10/19 12:39:00;;;;;;;1.50;1.40;;;19.10;99.90;;;;;;5019185;28;20489;-85
2023/10/19 12:41:37;;;;;;;2.80;1.60;;;19.20;99.90;;;;;;5018523;28;21620;-85
2023/10/19 12:44:38;;;;;;;4.60;1.83;;;19.20;99.90;;;;;;5005228;28;20445;-86
2023/10/19 12:47:28;;;;;;;;;;;;;;;;;;;;;
2023/10/19 12:50:45;;;;;;;3.77;1.40;;;19.20;99.90;;;;;;5024624;28;20511;-86
2023/10/19 12:53:34;;;;;;;7.33;1.90;;;19.30;99.90;;;;;;5035901;28;20531;-85
2023/10/19 12:56:02;;;;;;;4.60;2.20;;;19.00;99.90;;;;;;5021363;28;20457;-88
2023/10/19 12:59:00;;;;;;;5.80;1.90;;;19.10;99.90;;;;;;5023517;28;20508;-87
2023/10/19 13:02:02;;;;;;;2.50;1.43;;;18.90;99.90;;;;;;5023181;28;20508;-85
2023/10/19 13:04:32;;;;;;;4.43;1.50;;;19.10;99.90;;;;;;5026805;28;20461;-85
2023/10/19 13:07:12;;;;;;;4.00;2.10;;;19.00;99.90;;;;;;5042152;28;20457;-86
2023/10/19 13:10:07;;;;;;;4.90;2.33;;;19.20;99.90;;;;;;5029484;28;20489;-86
2023/10/19 13:13:07;;;;;;;6.10;2.07;;;19.20;99.90;;;;;;5029130;28;20441;-86
2023/10/19 13:15:49;;;;;;;6.73;2.07;;;19.00;99.90;;;;;;5028107;28;20464;-86
2023/10/19 13:18:29;;;;;;;3.70;2.13;;;19.10;99.90;;;;;;5022953;28;20677;-87
2023/10/19 13:21:37;;;;;;;;;;;;;;;;;;;;;
2023/10/19 13:24:44;;;;;;;5.30;2.27;;;19.10;99.90;;;;;;5024856;28;20995;-88
2023/10/19 13:27:58;;;;;;;4.23;2.33;;;18.70;99.90;;;;;;5026161;28;20465;-87
2023/10/19 13:30:59;;;;;;;5.60;2.10;;;18.80;99.90;;;;;;5029576;28;20933;-87
2023/10/19 13:33:56;;;;;;;2.50;2.03;;;18.60;99.90;;;;;;5039430;28;20467;-88
2023/10/19 13:37:08;;;;;;;3.37;2.27;;;18.70;99.90;;;;;;5060761;28;20497;-87
2023/10/19 13:40:04;;;;;;;4.50;2.13;;;18.70;99.90;;;;;;5036700;28;20453;-87
2023/10/19 13:42:52;;;;;;;3.17;2.30;;;18.70;99.90;;;;;;5032839;28;20454;-87
2023/10/19 13:45:53;;;;;;;5.67;3.00;;;18.60;99.90;;;;;;5028013;28;20499;-87
2023/10/19 13:48:39;;;;;;;4.40;2.67;;;18.40;99.90;;;;;;5048482;28;20460;-89
2023/10/19 13:51:47;;;;;;;4.63;2.00;;;18.40;99.90;;;;;;5043798;28;20557;-88
2023/10/19 13:54:43;;;;;;;5.60;2.43;;;18.50;99.90;;;;;;5046475;28;20461;-85
2023/10/19 13:57:25;;;;;;;7.90;2.80;;;18.40;99.90;;;;;;5046176;28;20472;-90
2023/10/19 14:00:52;;;;;;;3.27;2.87;;;18.30;99.90;;;;;;5046913;28;20476;-87
2023/10/19 14:03:40;;;;;;;6.67;2.60;;;18.10;99.90;;;;;;5045520;28;20469;-88
2023/10/19 14:06:27;;;;;;;4.40;2.27;;;18.20;99.90;;;;;;5047648;28;20441;-90
2023/10/19 14:09:31;;;;;;;6.40;2.43;;;18.30;99.90;;;;;;5042296;28;20436;-90
2023/10/19 14:12:35;;;;;;;4.40;2.80;;;18.40;99.90;;;;;;5039882;28;20519;-88
2023/10/19 14:15:42;;;;;;;3.73;3.03;;;18.50;99.90;;;;;;5046522;28;20554;-89
2023/10/19 14:18:52;;;;;;;5.80;2.63;;;18.40;99.90;;;;;;4973522;28;20446;-89
2023/10/19 14:21:52;;;;;;;6.83;2.40;;;18.20;99.90;;;;;;4973127;28;20535;-87
2023/10/19 14:24:55;;;;;;;;;;;;;;;;;;;;;
2023/10/19 14:27:32;;;;;;;3.27;2.40;;;18.40;99.90;;;;;;4984377;28;20571;-88
2023/10/19 14:33:34;;;;;;;4.43;2.83;;;18.30;99.90;;;;;;4976456;28;20464;-91
2023/10/19 14:36:23;;;;;;;4.60;2.70;;;18.20;99.90;;;;;;4957123;28;20454;-84
2023/10/19 14:39:30;;;;;;;3.87;2.80;;;17.90;99.90;;;;;;4955167;28;20576;-87
2023/10/19 14:43:07;;;;;;;6.40;2.30;;;17.90;99.90;;;;;;4962681;28;20506;-87
2023/10/19 14:45:51;;;;;;;4.67;2.90;;;18.10;99.90;;;;;;4969494;28;20463;-87
2023/10/19 14:48:49;;;;;;;5.90;3.23;;;18.20;99.90;;;;;;4984608;28;20514;-89
2023/10/19 14:51:39;;;;;;;7.17;3.40;;;18.20;99.90;;;;;;4966803;28;20483;-88
2023/10/19 14:55:16;;;;;;;3.40;2.70;;;18.20;99.90;;;;;;4958969;28;20460;-88
2023/10/19 14:58:33;;;;;;;3.70;2.73;;;18.20;99.90;;;;;;5037240;28;20516;-88
2023/10/19 15:01:28;;;;;;;4.83;2.73;;;18.30;99.90;;;;;;5040169;28;20514;-89
2023/10/19 15:04:46;;;;;;;3.73;2.60;;;18.20;99.90;;;;;;5037325;28;20448;-86
2023/10/19 15:07:35;;;;;;;4.97;3.40;;;18.20;99.90;;;;;;5030359;28;20446;-87
2023/10/19 15:10:54;;;;;;;4.30;3.10;;;18.30;99.90;;;;;;5025540;28;20486;-86
2023/10/19 15:13:36;;;;;;;6.50;3.33;;;18.20;99.90;;;;;;5028655;28;20489;-87
2023/10/19 15:16:38;;;;;;;43.00;36.73;;;18.30;99.90;;;;;;5020320;28;20567;-89
2023/10/19 15:19:29;;;;;;;4.70;3.70;;;18.40;99.90;;;;;;5016989;28;20461;-88
2023/10/19 15:22:23;;;;;;;5.27;2.83;;;18.40;99.90;;;;;;5025758;28;21011;-85
2023/10/19 15:25:32;;;;;;;6.33;3.83;;;18.40;99.90;;;;;;5011165;28;20449;-85
2023/10/19 15:28:33;;;;;;;7.87;3.83;;;18.60;99.90;;;;;;4960277;28;20471;-87
2023/10/19 15:31:26;;;;;;;6.77;4.20;;;18.60;99.90;;;;;;5040001;28;20492;-87
2023/10/19 15:34:13;;;;;;;7.83;4.10;;;18.50;99.90;;;;;;5020839;28;20460;-90
2023/10/19 15:41:27;;;;;;;7.07;4.43;;;18.40;99.90;;;;;;4955802;28;20563;-88
2023/10/19 15:48:01;;;;;;;6.33;4.10;;;18.40;99.90;;;;;;4870196;29;20500;-86
2023/10/19 15:50:56;;;;;;;5.80;4.20;;;18.40;99.90;;;;;;4944303;28;20981;-87
2023/10/19 15:53:53;;;;;;;;;;;;;;;;;;;;;
2023/10/19 16:00:01;;;;;;;4.50;4.10;;;18.40;99.90;;;;;;4943583;28;20580;-86
2023/10/19 16:06:21;;;;;;;5.03;3.70;;;18.30;99.90;;;;;;4929736;28;20487;-89
2023/10/19 16:09:29;;;;;;;7.53;4.97;;;18.30;99.90;;;;;;4943742;29;20609;-87
2023/10/19 16:13:00;;;;;;;5.33;4.00;;;18.00;99.90;;;;;;4933351;28;20475;-88
2023/10/19 16:16:38;;;;;;;5.73;4.30;;;18.00;99.90;;;;;;4952051;28;20560;-86
2023/10/19 16:19:31;;;;;;;5.43;4.30;;;18.00;99.90;;;;;;5011285;28;21005;-90
2023/10/19 16:22:22;;;;;;;4.77;4.30;;;18.00;99.90;;;;;;5017132;28;20503;-86
2023/10/19 16:25:13;;;;;;;7.33;4.40;;;17.90;99.90;;;;;;5016686;28;20457;-88
2023/10/19 16:28:30;;;;;;;4.50;4.10;;;17.90;99.90;;;;;;4998713;28;20445;-87
2023/10/19 16:31:11;;;;;;;8.07;4.13;;;17.70;99.90;;;;;;5013936;28;20488;-87
2023/10/19 16:38:13;;;;;;;5.70;4.27;;;17.50;99.90;;;;;;5022313;28;20435;-88
2023/10/19 16:41:22;;;;;;;7.40;4.93;;;17.60;99.90;;;;;;5022164;28;20507;-87
2023/10/19 16:44:00;;;;;;;5.37;3.87;;;17.70;99.90;;;;;;5016762;28;20450;-86
2023/10/19 17:02:26;;;;;;;5.30;4.80;;;17.60;99.90;;;;;;5015146;28;20485;-88
2023/10/19 17:09:26;;;;;;;7.63;5.10;;;17.70;99.90;;;;;;4959051;28;20435;-85
2023/10/19 17:12:56;;;;;;;7.80;4.20;;;17.50;99.90;;;;;;4956238;28;21179;-90
2023/10/19 17:29:35;;;;;;;5.10;4.60;;;17.40;99.90;;;;;;4995221;28;20505;-87
2023/10/19 17:32:02;;;;;;;6.20;4.60;;;17.30;99.90;;;;;;5008338;22;20500;-87
2023/10/19 17:34:54;;;;;;;7.70;6.10;;;17.30;99.90;;;;;;5000141;28;20851;-88
2023/10/19 17:37:40;;;;;;;5.03;4.53;;;17.20;99.90;;;;;;5001109;28;20482;-90
2023/10/19 17:40:35;;;;;;;6.73;4.97;;;17.00;99.90;;;;;;4998478;28;20482;-88
2023/10/19 17:43:35;;;;;;;4.83;4.43;;;16.90;99.90;;;;;;4978988;28;20440;-88
2023/10/19 17:46:43;;;;;;;6.07;4.83;;;17.30;99.90;;;;;;4980881;28;20441;-87
2023/10/19 17:57:40;;;;;;;12.43;5.53;;;17.20;99.90;;;;;;5014733;28;20485;-88
2023/10/19 18:00:44;;;;;;;6.70;6.10;;;17.10;99.90;;;;;;5010891;28;20501;-87
2023/10/19 18:03:39;;;;;;;6.90;5.33;;;17.20;99.90;;;;;;4982652;28;20560;-91
2023/10/19 18:06:35;;;;;;;6.60;5.97;;;17.30;99.90;;;;;;4985456;28;20573;-87
2023/10/19 18:09:26;;;;;;;7.57;6.17;;;17.30;99.90;;;;;;5016265;28;20470;-88
2023/10/19 18:12:09;;;;;;;6.27;5.67;;;17.20;99.90;;;;;;4999001;28;20490;-87
2023/10/19 18:18:59;;;;;;;7.20;5.93;;;17.20;99.90;;;;;;4996348;28;22332;-86
2023/10/19 18:21:58;;;;;;;5.70;5.10;;;17.10;99.90;;;;;;5006581;28;20511;-87
2023/10/19 18:24:42;;;;;;;6.33;5.73;;;17.20;99.90;;;;;;4992303;28;20485;-89
2023/10/19 18:27:33;;;;;;;7.60;5.90;;;17.10;99.90;;;;;;4994400;28;20482;-88
2023/10/19 18:30:25;;;;;;;6.13;5.53;;;17.10;99.90;;;;;;4995254;28;20513;-87
2023/10/19 18:33:16;;;;;;;5.50;5.00;;;16.90;99.90;;;;;;4981334;28;20568;-88
2023/10/19 18:36:16;;;;;;;6.00;5.00;;;16.70;99.90;;;;;;5002283;28;20455;-88
2023/10/19 18:39:15;;;;;;;5.70;5.20;;;16.70;99.90;;;;;;4975233;28;20451;-87
2023/10/19 18:41:56;;;;;;;6.30;5.60;;;16.80;99.90;;;;;;4996275;28;20528;-86
2023/10/19 18:44:23;;;;;;;6.77;5.53;;;17.00;99.90;;;;;;4996521;28;20467;-87
2023/10/19 18:46:50;;;;;;;8.20;5.53;;;17.00;99.90;;;;;;4988698;28;20458;-88
2023/10/19 18:49:17;;;;;;;6.20;5.60;;;17.00;99.90;;;;;;4984775;28;20837;-87
2023/10/19 18:51:44;;;;;;;6.00;5.40;;;17.00;99.90;;;;;;5011643;28;20490;-87
2023/10/19 18:54:10;;;;;;;7.13;5.40;;;16.90;99.90;;;;;;4999921;28;20458;-89
2023/10/19 18:56:37;;;;;;;6.60;5.10;;;16.90;99.90;;;;;;5002660;28;20467;-87
2023/10/19 18:59:27;;;;;;;5.63;5.03;;;16.90;99.90;;;;;;5002506;28;20461;-88
2023/10/19 19:01:54;;;;;;;5.30;4.47;;;16.80;99.90;;;;;;4996757;28;20560;-88
2023/10/19 19:04:27;;;;;;;6.50;5.87;;;16.90;99.90;;;;;;5000298;28;20465;-88
2023/10/19 19:06:55;;;;;;;7.67;5.93;;;16.90;99.90;;;;;;5001286;28;20509;-89
2023/10/19 19:09:23;;;;;;;7.83;7.13;;;16.80;99.90;;;;;;4996663;28;20552;-88
2023/10/19 19:11:50;;;;;;;7.03;6.37;;;16.80;99.90;;;;;;4997817;28;20481;-89
2023/10/19 19:14:19;;;;;;;6.70;5.57;;;16.80;99.90;;;;;;4998374;28;20630;-86
2023/10/19 19:16:47;;;;;;;7.17;5.70;;;16.90;99.90;;;;;;4997618;28;20471;-90
2023/10/19 19:19:14;;;;;;;6.77;6.17;;;17.00;99.90;;;;;;4998784;28;20451;-88
2023/10/19 19:21:42;;;;;;;6.80;5.53;;;16.90;99.90;;;;;;4999800;28;20507;-85
2023/10/19 19:24:15;;;;;;;6.67;4.90;;;16.90;99.90;;;;;;4997345;28;20529;-88
2023/10/19 19:26:44;;;;;;;7.40;5.60;;;16.80;99.90;;;;;;4996222;28;20546;-88
2023/10/19 19:29:20;;;;;;;7.30;6.27;;;16.60;99.90;;;;;;4993401;28;20494;-87
2023/10/19 19:31:48;;;;;;;5.93;5.40;;;16.70;99.90;;;;;;4993686;28;20494;-89
2023/10/19 19:34:31;;;;;;;6.40;5.80;;;16.90;99.90;;;;;;4996037;28;20500;-88
2023/10/19 19:37:01;;;;;;;8.93;5.77;;;16.90;99.90;;;;;;5000240;28;20549;-91
2023/10/19 19:39:58;;;;;;;6.43;5.83;;;16.90;99.90;;;;;;5001043;28;20500;-88
2023/10/19 19:43:03;;;;;;;6.93;6.30;;;16.80;99.90;;;;;;5013017;28;20542;-89
2023/10/19 19:45:49;;;;;;;6.43;5.80;;;16.80;99.90;;;;;;5006697;28;20446;-91
2023/10/19 19:48:21;;;;;;;8.93;6.37;;;16.80;99.90;;;;;;5006968;28;20446;-88
2023/10/19 19:50:48;;;;;;;8.10;5.77;;;16.80;99.90;;;;;;5001617;28;20838;-87
2023/10/19 19:53:16;;;;;;;8.10;7.00;;;16.80;99.90;;;;;;4994489;28;20526;-89
2023/10/19 19:55:58;;;;;;;6.20;5.60;;;16.80;99.90;;;;;;4924211;28;20449;-89
2023/10/19 19:58:38;;;;;;;7.03;5.27;;;16.80;99.90;;;;;;4918141;28;21030;-86
2023/10/19 20:05:25;;;;;;;8.33;6.90;;;16.80;99.90;;;;;;4973678;28;20480;-89
2023/10/19 20:08:24;;;;;;;8.87;6.93;;;16.70;99.90;;;;;;4998980;28;20530;-86
2023/10/19 20:11:19;;;;;;;8.23;6.63;;;16.80;99.90;;;;;;4988528;28;20478;-87
2023/10/19 20:14:40;;;;;;;6.60;5.97;;;16.70;99.90;;;;;;5006818;28;20596;-88
2023/10/19 20:17:20;;;;;;;7.33;6.63;;;16.80;99.90;;;;;;4945814;28;20456;-88
2023/10/19 20:20:54;;;;;;;10.43;7.20;;;16.70;99.90;;;;;;4950217;28;20448;-90
2023/10/19 20:24:10;;;;;;;6.67;6.00;;;16.70;99.90;;;;;;4895982;29;20491;-90
2023/10/19 20:27:29;;;;;;;7.60;6.60;;;16.70;99.90;;;;;;4912246;28;20478;-88
2023/10/19 20:37:58;;;;;;;7.77;7.00;;;16.70;99.90;;;;;;4894507;29;20438;-90
2023/10/19 20:40:53;;;;;;;8.63;7.30;;;16.70;99.90;;;;;;4925338;29;20549;-87